createdAt,value
2019-04-29T00:02:00.165Z,13.70
2019-04-29T00:04:26.367Z,13.50
2019-04-29T00:06:52.471Z,13.93
2019-04-29T00:09:19.317Z,14.37
2019-04-29T00:11:45.640Z,14.40
2019-04-29T00:14:12.031Z,13.97
2019-04-29T00:16:40.313Z,13.43
2019-04-29T00:19:20.200Z,13.03
2019-04-29T00:21:46.552Z,12.77
2019-04-29T00:24:12.678Z,13.67
2019-04-29T00:26:38.987Z,12.97
2019-04-29T00:29:05.107Z,14.07
2019-04-29T00:31:31.329Z,14.27
2019-04-29T00:33:57.430Z,15.13
2019-04-29T00:36:25.454Z,15.30
2019-04-29T00:39:10.345Z,15.63
2019-04-29T00:41:44.214Z,15.60
2019-04-29T00:44:12.126Z,15.47
2019-04-29T00:46:38.332Z,16.37
2019-04-29T00:49:04.874Z,16.20
2019-04-29T00:51:31.160Z,15.30
2019-04-29T00:53:59.171Z,15.40
2019-04-29T00:56:25.349Z,14.77
2019-04-29T00:58:51.511Z,16.03
2019-04-29T01:01:19.701Z,14.90
2019-04-29T01:03:46.056Z,14.80
2019-04-29T01:06:12.272Z,14.23
2019-04-29T01:08:38.392Z,14.63
2019-04-29T01:11:04.718Z,15.40
2019-04-29T01:13:30.814Z,14.87
2019-04-29T01:15:56.911Z,14.80
2019-04-29T01:18:23.048Z,15.97
2019-04-29T01:20:49.369Z,14.50
2019-04-29T01:23:15.471Z,15.43
2019-04-29T01:25:43.610Z,15.17
2019-04-29T01:28:11.726Z,14.13
2019-04-29T01:30:53.952Z,14.70
2019-04-29T01:33:20.465Z,14.50
2019-04-29T01:35:48.568Z,14.80
2019-04-29T01:38:14.805Z,13.80
2019-04-29T01:40:42.978Z,14.33
2019-04-29T01:43:09.182Z,16.03
2019-04-29T01:45:35.317Z,15.30
2019-04-29T01:48:01.429Z,14.93
2019-04-29T01:50:27.525Z,14.93
2019-04-29T01:52:53.655Z,16.17
2019-04-29T01:55:19.774Z,16.23
2019-04-29T01:57:45.969Z,16.23
2019-04-29T02:00:12.816Z,15.43
2019-04-29T02:02:39.028Z,15.50
2019-04-29T02:05:05.335Z,15.10
2019-04-29T02:07:31.476Z,15.03
2019-04-29T02:10:05.366Z,13.80
2019-04-29T02:12:31.468Z,14.17
2019-04-29T02:14:57.595Z,15.23
2019-04-29T02:17:23.812Z,15.37
2019-04-29T02:19:49.925Z,15.67
2019-04-29T02:22:18.069Z,15.77
2019-04-29T02:24:46.074Z,14.87
2019-04-29T02:27:12.277Z,14.07
2019-04-29T02:29:38.411Z,15.63
2019-04-29T02:32:04.532Z,13.70
2019-04-29T02:34:30.728Z,13.07
2019-04-29T02:36:58.545Z,14.27
2019-04-29T02:39:35.480Z,13.93
2019-04-29T02:42:20.293Z,13.23
2019-04-29T02:44:46.411Z,14.13
2019-04-29T02:47:12.519Z,13.90
2019-04-29T02:49:38.657Z,14.60
2019-04-29T02:52:04.758Z,14.20
2019-04-29T02:54:30.965Z,15.17
2019-04-29T02:57:01.535Z,15.40
2019-04-29T02:59:32.267Z,15.60
2019-04-29T03:02:18.219Z,14.90
2019-04-29T03:04:52.059Z,15.20
2019-04-29T03:07:18.552Z,15.83
2019-04-29T03:09:44.792Z,14.87
2019-04-29T03:12:11.178Z,14.80
2019-04-29T03:14:37.493Z,16.80
2019-04-29T03:17:03.726Z,15.33
2019-04-29T03:19:35.115Z,14.67
2019-04-29T03:22:02.732Z,13.83
2019-04-29T03:24:28.965Z,18.75
2019-04-29T03:26:55.121Z,18.20
2019-04-29T03:29:21.316Z,16.30
2019-04-29T03:31:47.749Z,15.23
2019-04-29T03:34:13.887Z,15.20
2019-04-29T03:36:40.075Z,14.63
2019-04-29T03:39:06.423Z,14.83
2019-04-29T03:41:32.735Z,14.93
2019-04-29T03:43:59.062Z,16.40
2019-04-29T03:46:25.416Z,16.03
2019-04-29T03:48:51.610Z,16.20
2019-04-29T03:51:17.713Z,15.53
2019-04-29T03:53:43.840Z,16.20
2019-04-29T03:56:09.942Z,15.50
2019-04-29T03:58:36.089Z,15.57
2019-04-29T04:01:20.663Z,16.60
2019-04-29T04:03:48.783Z,15.60
2019-04-29T04:06:22.919Z,15.60
2019-04-29T04:09:04.817Z,15.93
2019-04-29T04:11:19.007Z,15.00
2019-04-29T04:13:45.288Z,15.67
2019-04-29T04:16:13.481Z,15.90
2019-04-29T04:18:39.685Z,15.07
2019-04-29T04:21:05.850Z,15.83
2019-04-29T04:23:32.163Z,15.63
2019-04-29T04:25:58.375Z,15.87
2019-04-29T04:28:24.730Z,15.77
2019-04-29T04:30:50.893Z,17.97
2019-04-29T04:33:17.106Z,18.13
2019-04-29T04:35:43.262Z,17.80
2019-04-29T04:38:09.480Z,18.60
2019-04-29T04:40:40.358Z,18.07
2019-04-29T04:43:06.708Z,17.20
2019-04-29T04:45:32.973Z,16.90
2019-04-29T04:47:59.179Z,16.93
2019-04-29T04:50:25.646Z,15.73
2019-04-29T04:52:51.870Z,15.57
2019-04-29T04:55:19.903Z,16.00
2019-04-29T04:57:46.052Z,14.70
2019-04-29T05:00:20.674Z,14.20
2019-04-29T05:02:46.880Z,13.10
2019-04-29T05:05:13.315Z,12.90
2019-04-29T05:07:39.537Z,12.07
2019-04-29T05:10:05.969Z,11.50
2019-04-29T05:12:32.203Z,10.40
2019-04-29T05:14:58.445Z,9.57
2019-04-29T05:17:24.659Z,8.97
2019-04-29T05:19:50.844Z,9.53
2019-04-29T05:22:17.059Z,9.70
2019-04-29T05:24:43.191Z,8.77
2019-04-29T05:27:09.428Z,8.70
2019-04-29T05:29:35.585Z,8.33
2019-04-29T05:32:01.805Z,8.47
2019-04-29T05:34:29.998Z,7.93
2019-04-29T05:37:04.088Z,8.20
2019-04-29T05:39:35.016Z,8.30
2019-04-29T05:42:01.263Z,7.03
2019-04-29T05:44:35.083Z,7.77
2019-04-29T05:47:07.004Z,8.80
2019-04-29T05:49:41.623Z,9.10
2019-04-29T05:52:30.093Z,11.77
2019-04-29T05:54:55.792Z,10.97
2019-04-29T05:57:25.314Z,11.73
2019-04-29T05:59:49.958Z,13.47
2019-04-29T06:02:16.077Z,13.43
2019-04-29T06:04:42.277Z,14.30
2019-04-29T06:07:08.539Z,16.57
2019-04-29T06:09:34.651Z,16.20
2019-04-29T06:12:00.862Z,17.97
2019-04-29T06:14:27.008Z,17.17
2019-04-29T06:16:57.573Z,17.07
2019-04-29T06:19:21.216Z,18.57
2019-04-29T06:21:47.390Z,19.20
2019-04-29T06:24:13.510Z,18.83
2019-04-29T06:26:39.608Z,19.10
2019-04-29T06:29:06.172Z,18.37
2019-04-29T06:31:32.365Z,18.17
2019-04-29T06:34:00.540Z,17.87
2019-04-29T06:36:26.509Z,18.47
2019-04-29T06:38:52.750Z,18.10
2019-04-29T06:41:18.864Z,18.23
2019-04-29T06:43:45.135Z,19.43
2019-04-29T06:46:11.319Z,19.77
2019-04-29T06:48:37.524Z,20.27
2019-04-29T06:51:03.858Z,19.40
2019-04-29T06:53:30.068Z,19.47
2019-04-29T06:55:56.268Z,17.90
2019-04-29T06:58:22.514Z,20.70
2019-04-29T07:00:50.846Z,21.60
2019-04-29T07:03:20.805Z,19.80
2019-04-29T07:05:44.743Z,19.57
2019-04-29T07:08:10.878Z,19.43
2019-04-29T07:10:37.079Z,18.60
2019-04-29T07:13:03.514Z,18.80
2019-04-29T07:15:29.714Z,17.60
2019-04-29T07:17:55.818Z,16.50
2019-04-29T07:20:21.958Z,17.07
2019-04-29T07:22:48.152Z,15.63
2019-04-29T07:25:14.266Z,13.07
2019-04-29T07:27:43.528Z,13.10
2019-04-29T07:30:09.001Z,8.10
2019-04-29T07:32:35.301Z,12.07
2019-04-29T07:35:05.809Z,15.43
2019-04-29T07:37:34.159Z,16.43
2019-04-29T07:39:58.678Z,17.57
2019-04-29T07:42:31.891Z,15.00
2019-04-29T07:45:11.230Z,12.43
2019-04-29T07:47:38.487Z,13.03
2019-04-29T07:50:05.449Z,15.23
2019-04-29T07:52:31.661Z,11.33
2019-04-29T07:54:57.861Z,11.00
2019-04-29T07:57:24.059Z,12.70
2019-04-29T07:59:50.197Z,12.97
2019-04-29T08:02:16.339Z,14.20
2019-04-29T08:04:42.566Z,13.17
2019-04-29T08:07:08.776Z,15.33
2019-04-29T08:09:35.617Z,15.00
2019-04-29T08:12:02.130Z,15.57
2019-04-29T08:14:30.754Z,14.70
2019-04-29T08:16:56.909Z,15.70
2019-04-29T08:19:24.596Z,16.53
2019-04-29T08:21:51.352Z,20.37
2019-04-29T08:24:17.595Z,20.33
2019-04-29T08:26:47.526Z,20.17
2019-04-29T08:29:11.746Z,17.80
2019-04-29T08:31:37.962Z,18.57
2019-04-29T08:34:04.181Z,20.30
2019-04-29T08:36:30.408Z,19.67
2019-04-29T08:39:07.989Z,18.57
2019-04-29T08:41:28.660Z,18.37
2019-04-29T08:44:14.744Z,20.83
2019-04-29T08:46:27.497Z,19.70
2019-04-29T08:48:53.700Z,24.03
2019-04-29T08:51:19.895Z,22.40
2019-04-29T08:53:46.160Z,23.37
2019-04-29T08:56:12.355Z,24.47
2019-04-29T08:58:39.453Z,24.00
2019-04-29T09:01:05.833Z,21.57
2019-04-29T09:03:40.080Z,24.37
2019-04-29T09:06:05.652Z,24.33
2019-04-29T09:08:28.816Z,24.47
2019-04-29T09:10:56.281Z,25.00
2019-04-29T09:13:22.416Z,23.53
2019-04-29T09:15:48.663Z,24.90
2019-04-29T09:18:14.867Z,23.43
2019-04-29T09:20:42.078Z,26.90
2019-04-29T09:23:10.293Z,21.50
2019-04-29T09:25:47.259Z,25.43
2019-04-29T09:28:18.140Z,25.97
2019-04-29T09:30:42.918Z,28.67
2019-04-29T09:33:13.223Z,27.90
2019-04-29T09:35:38.809Z,27.90
2019-04-29T09:38:05.074Z,26.07
2019-04-29T09:40:35.985Z,25.70
2019-04-29T09:43:15.182Z,29.23
2019-04-29T09:45:43.032Z,30.03
2019-04-29T09:48:09.190Z,27.47
2019-04-29T09:50:39.185Z,27.20
2019-04-29T09:53:03.506Z,28.00
2019-04-29T09:55:29.663Z,28.00
2019-04-29T09:57:55.775Z,26.50
2019-04-29T10:00:40.328Z,26.60
2019-04-29T10:03:12.226Z,28.27
2019-04-29T10:05:43.309Z,27.23
2019-04-29T10:08:09.412Z,28.20
2019-04-29T10:10:37.435Z,29.30
2019-04-29T10:13:04.147Z,28.23
2019-04-29T10:15:32.181Z,27.20
2019-04-29T10:18:00.281Z,28.40
2019-04-29T10:20:43.606Z,30.60
2019-04-29T10:23:09.839Z,29.73
2019-04-29T10:25:36.050Z,30.33
2019-04-29T10:28:02.489Z,30.23
2019-04-29T10:30:31.255Z,30.47
2019-04-29T10:32:58.537Z,29.97
2019-04-29T10:35:24.778Z,30.90
2019-04-29T10:37:51.102Z,30.70
2019-04-29T10:40:25.711Z,27.87
2019-04-29T10:43:06.705Z,26.47
2019-04-29T10:45:40.426Z,27.93
2019-04-29T10:48:19.628Z,28.40
2019-04-29T10:50:52.082Z,27.23
2019-04-29T10:53:17.384Z,30.43
2019-04-29T10:55:43.948Z,27.80
2019-04-29T10:58:10.454Z,29.00
2019-04-29T11:00:57.260Z,28.30
2019-04-29T11:03:25.082Z,27.67
2019-04-29T11:06:00.562Z,29.00
2019-04-29T11:08:21.583Z,27.30
2019-04-29T11:10:47.915Z,29.07
2019-04-29T11:13:14.126Z,28.80
2019-04-29T11:15:40.267Z,28.17
2019-04-29T11:18:06.695Z,28.27
2019-04-29T11:20:33.701Z,25.97
2019-04-29T11:23:16.411Z,27.67
2019-04-29T11:25:51.070Z,28.63
2019-04-29T11:28:16.079Z,29.73
2019-04-29T11:30:43.617Z,29.07
2019-04-29T11:33:11.638Z,28.50
2019-04-29T11:35:39.998Z,27.33
2019-04-29T11:38:08.181Z,26.63
2019-04-29T11:40:43.118Z,28.03
2019-04-29T11:43:03.939Z,27.30
2019-04-29T11:45:33.896Z,27.77
2019-04-29T11:47:58.082Z,27.17
2019-04-29T11:50:31.986Z,28.70
2019-04-29T11:52:58.212Z,25.83
2019-04-29T11:55:24.340Z,26.83
2019-04-29T11:57:52.499Z,26.17
2019-04-29T12:00:30.028Z,27.00
2019-04-29T12:02:58.191Z,27.73
2019-04-29T12:05:28.967Z,29.60
2019-04-29T12:07:55.379Z,28.43
2019-04-29T12:10:21.903Z,28.07
2019-04-29T12:12:49.054Z,31.07
2019-04-29T12:15:17.221Z,29.90
2019-04-29T12:17:48.359Z,29.87
2019-04-29T12:20:22.406Z,30.70
2019-04-29T12:22:49.060Z,28.90
2019-04-29T12:25:15.373Z,30.03
2019-04-29T12:27:41.564Z,29.97
2019-04-29T12:30:09.887Z,30.30
2019-04-29T12:32:47.051Z,30.50
2019-04-29T12:35:21.724Z,28.40
2019-04-29T12:38:05.950Z,29.87
2019-04-29T12:40:35.597Z,30.87
2019-04-29T12:43:17.566Z,29.73
2019-04-29T12:45:53.718Z,29.20
2019-04-29T12:48:25.095Z,29.23
2019-04-29T12:50:51.005Z,30.07
2019-04-29T12:53:15.716Z,29.13
2019-04-29T12:55:50.309Z,28.77
2019-04-29T12:58:19.152Z,28.77
2019-04-29T13:00:48.321Z,28.90
2019-04-29T13:03:30.918Z,27.63
2019-04-29T13:06:02.407Z,29.10
2019-04-29T13:08:35.225Z,28.13
2019-04-29T13:11:03.339Z,26.80
2019-04-29T13:13:29.537Z,26.97
2019-04-29T13:16:03.717Z,25.90
2019-04-29T13:18:43.720Z,26.13
2019-04-29T13:21:10.824Z,24.73
2019-04-29T13:23:55.004Z,23.43
2019-04-29T13:26:07.889Z,23.07
2019-04-29T13:28:34.752Z,23.07
2019-04-29T13:31:01.441Z,23.00
2019-04-29T13:33:27.559Z,22.33
2019-04-29T13:35:53.679Z,20.40
2019-04-29T13:38:19.905Z,19.83
2019-04-29T13:40:46.248Z,19.77
2019-04-29T13:43:12.483Z,19.63
2019-04-29T13:45:57.016Z,19.57
2019-04-29T13:48:27.896Z,18.73
2019-04-29T13:50:58.762Z,19.20
2019-04-29T13:53:24.961Z,18.17
2019-04-29T13:56:10.012Z,16.87
2019-04-29T13:58:22.106Z,17.37
2019-04-29T14:00:50.336Z,16.73
2019-04-29T14:03:27.385Z,16.93
2019-04-29T14:06:03.855Z,17.40
2019-04-29T14:08:24.136Z,18.57
2019-04-29T14:10:51.197Z,18.57
2019-04-29T14:15:45.627Z,18.07
2019-04-29T14:18:12.124Z,17.43
2019-04-29T14:18:53.558Z,18.10
2019-04-29T14:20:39.956Z,17.83
2019-04-29T14:23:06.074Z,17.17
2019-04-29T14:25:32.217Z,17.97
2019-04-29T14:27:58.421Z,18.40
2019-04-29T14:30:37.935Z,16.93
2019-04-29T14:32:54.571Z,16.27
2019-04-29T14:35:36.390Z,16.17
2019-04-29T14:38:05.180Z,16.63
2019-04-29T14:40:31.130Z,15.23
2019-04-29T14:43:02.883Z,14.93
2019-04-29T14:45:40.467Z,14.40
2019-04-29T14:48:14.290Z,13.97
2019-04-29T14:50:42.853Z,12.40
2019-04-29T14:53:09.049Z,11.93
2019-04-29T14:55:35.275Z,11.97
2019-04-29T14:58:01.451Z,10.60
2019-04-29T15:00:47.711Z,10.67
2019-04-29T15:03:14.112Z,10.87
2019-04-29T15:05:40.351Z,11.50
2019-04-29T15:08:06.529Z,9.40
2019-04-29T15:10:36.767Z,9.53
2019-04-29T15:13:20.110Z,10.10
2019-04-29T15:15:36.836Z,8.83
2019-04-29T15:18:15.462Z,7.70
2019-04-29T15:20:51.001Z,7.13
2019-04-29T15:23:27.942Z,7.50
2019-04-29T15:25:45.367Z,5.57
2019-04-29T15:28:12.119Z,6.70
2019-04-29T15:30:38.677Z,5.87
2019-04-29T15:33:06.848Z,5.70
2019-04-29T15:35:33.551Z,5.50
2019-04-29T15:37:59.843Z,5.00
2019-04-29T15:40:26.653Z,4.40
2019-04-29T15:42:54.120Z,3.90
2019-04-29T15:45:20.454Z,3.90
2019-04-29T15:47:47.165Z,5.23
2019-04-29T15:50:18.731Z,3.73
2019-04-29T15:52:41.681Z,3.83
2019-04-29T15:55:08.081Z,4.50
2019-04-29T15:57:34.452Z,3.60
2019-04-29T16:00:03.701Z,5.30
2019-04-29T16:02:28.771Z,4.13
2019-04-29T16:04:56.932Z,3.50
2019-04-29T16:07:24.978Z,3.60
2019-04-29T16:09:58.668Z,3.10
2019-04-29T16:12:35.660Z,3.10
2019-04-29T16:15:02.194Z,2.93
2019-04-29T16:17:31.760Z,2.50
2019-04-29T16:19:56.413Z,3.23
2019-04-29T16:22:22.566Z,3.07
2019-04-29T16:24:48.895Z,2.70
2019-04-29T16:27:15.106Z,2.03
2019-04-29T16:29:46.216Z,2.20
2019-04-29T16:32:11.214Z,2.20
2019-04-29T16:34:44.223Z,2.00
2019-04-29T16:37:05.780Z,2.10
2019-04-29T16:39:32.110Z,2.10
2019-04-29T16:42:01.346Z,2.43
2019-04-29T16:44:35.570Z,1.83
2019-04-29T16:46:56.048Z,1.80
2019-04-29T16:49:22.579Z,1.80
2019-04-29T16:51:53.513Z,1.60
2019-04-29T16:54:20.550Z,1.70
2019-04-29T16:56:44.876Z,1.50
2019-04-29T16:59:11.229Z,1.60
2019-04-29T17:01:37.573Z,1.40
2019-04-29T17:04:05.539Z,1.50
2019-04-29T17:06:35.855Z,1.60
2019-04-29T17:09:04.965Z,1.77
2019-04-29T17:11:34.883Z,2.20
2019-04-29T17:14:03.625Z,1.57
2019-04-29T17:16:29.790Z,1.60
2019-04-29T17:18:56.093Z,1.30
2019-04-29T17:21:22.304Z,2.37
2019-04-29T17:23:48.522Z,1.50
2019-04-29T17:26:14.852Z,1.53
2019-04-29T17:28:48.842Z,1.97
2019-04-29T17:31:33.931Z,1.50
2019-04-29T17:34:08.585Z,1.60
2019-04-29T17:36:35.031Z,1.30
2019-04-29T17:39:04.687Z,1.57
2019-04-29T17:41:31.023Z,1.23
2019-04-29T17:43:59.135Z,1.30
2019-04-29T17:46:27.181Z,1.13
2019-04-29T17:49:04.294Z,0.90
2019-04-29T17:51:31.704Z,1.10
2019-04-29T17:53:59.850Z,1.50
2019-04-29T17:56:27.957Z,1.00
2019-04-29T17:59:11.190Z,1.20
2019-04-29T18:01:44.666Z,1.37
2019-04-29T18:04:16.744Z,1.57
2019-04-29T18:06:41.965Z,1.20
2019-04-29T18:09:28.141Z,1.40
2019-04-29T18:11:57.540Z,1.50
2019-04-29T18:14:22.643Z,1.40
2019-04-29T18:16:48.987Z,1.60
2019-04-29T18:19:17.477Z,1.73
2019-04-29T18:21:47.362Z,2.27
2019-04-29T18:24:25.345Z,2.60
2019-04-29T18:27:02.294Z,2.90
2019-04-29T18:29:28.436Z,4.23
2019-04-29T18:31:55.611Z,3.17
2019-04-29T18:34:21.888Z,3.60
2019-04-29T18:36:48.081Z,3.33
2019-04-29T18:39:20.136Z,4.37
2019-04-29T18:41:44.821Z,3.77
2019-04-29T18:44:18.971Z,5.67
2019-04-29T18:46:39.169Z,5.10
2019-04-29T18:49:07.091Z,5.83
2019-04-29T18:51:34.770Z,7.17
2019-04-29T18:54:01.049Z,6.37
2019-04-29T18:56:27.175Z,6.93
2019-04-29T18:58:53.319Z,7.50
2019-04-29T19:01:19.709Z,8.53
2019-04-29T19:03:47.967Z,7.63
2019-04-29T19:06:15.104Z,8.20
2019-04-29T19:08:41.413Z,8.80
2019-04-29T19:11:07.723Z,7.93
2019-04-29T19:13:36.121Z,8.20
2019-04-29T19:16:09.525Z,7.40
2019-04-29T19:18:30.029Z,7.70
2019-04-29T19:20:56.996Z,8.73
2019-04-29T19:23:29.487Z,8.43
2019-04-29T19:25:53.236Z,7.97
2019-04-29T19:28:29.629Z,6.77
2019-04-29T19:30:47.586Z,7.90
2019-04-29T19:33:15.146Z,9.60
2019-04-29T19:35:41.367Z,9.07
2019-04-29T19:38:12.525Z,7.27
2019-04-29T19:40:41.452Z,8.47
2019-04-29T19:43:03.655Z,7.97
2019-04-29T19:45:29.885Z,8.80
2019-04-29T19:47:56.117Z,7.77
2019-04-29T19:50:22.357Z,7.50
2019-04-29T19:52:48.506Z,6.87
2019-04-29T19:55:14.732Z,7.07
2019-04-29T19:57:46.648Z,7.47
2019-04-29T20:00:09.723Z,6.93
2019-04-29T20:02:40.775Z,9.40
2019-04-29T20:05:12.912Z,8.23
2019-04-29T20:07:42.250Z,9.30
2019-04-29T20:10:09.966Z,9.03
2019-04-29T20:12:37.176Z,9.23
2019-04-29T20:15:07.800Z,9.10
2019-04-29T20:17:49.067Z,8.57
2019-04-29T20:20:16.894Z,8.53
2019-04-29T20:22:48.207Z,8.57
2019-04-29T20:25:11.582Z,9.83
2019-04-29T20:27:38.092Z,9.03
2019-04-29T20:30:15.933Z,7.93
2019-04-29T20:32:36.305Z,8.40
2019-04-29T20:35:08.352Z,7.00
2019-04-29T20:37:33.482Z,8.07
2019-04-29T20:40:00.937Z,8.47
2019-04-29T20:42:27.444Z,7.30
2019-04-29T20:44:55.200Z,8.20
2019-04-29T20:47:23.527Z,6.57
2019-04-29T20:49:49.733Z,6.60
2019-04-29T20:52:36.159Z,7.53
2019-04-29T20:55:07.379Z,6.83
2019-04-29T20:57:33.001Z,7.53
2019-04-29T20:59:59.491Z,6.40
2019-04-29T21:02:31.205Z,6.80
2019-04-29T21:04:57.802Z,6.30
2019-04-29T21:07:23.643Z,7.50
2019-04-29T21:09:49.805Z,6.60
2019-04-29T21:12:29.856Z,7.17
2019-04-29T21:14:59.150Z,7.07
2019-04-29T21:17:30.704Z,7.50
2019-04-29T21:19:52.612Z,8.10
2019-04-29T21:22:23.424Z,6.80
2019-04-29T21:24:49.444Z,5.93
2019-04-29T21:27:15.885Z,6.03
2019-04-29T21:29:42.891Z,6.20
2019-04-29T21:32:09.106Z,6.43
2019-04-29T21:34:46.063Z,5.97
2019-04-29T21:37:15.430Z,6.00
2019-04-29T21:39:46.862Z,5.00
2019-04-29T21:42:35.786Z,5.30
2019-04-29T21:45:03.986Z,4.90
2019-04-29T21:47:41.679Z,5.93
2019-04-29T21:49:57.829Z,5.40
2019-04-29T21:52:25.367Z,6.07
2019-04-29T21:54:51.572Z,6.90
2019-04-29T21:57:23.750Z,6.10
2019-04-29T21:59:48.586Z,6.23
2019-04-29T22:02:15.344Z,5.57
2019-04-29T22:04:42.495Z,6.77
2019-04-29T22:07:09.025Z,5.87
2019-04-29T22:09:36.548Z,5.80
2019-04-29T22:12:05.557Z,5.97
2019-04-29T22:14:31.788Z,6.80
2019-04-29T22:16:58.029Z,6.73
2019-04-29T22:19:26.924Z,5.70
2019-04-29T22:21:52.773Z,6.70
2019-04-29T22:24:21.815Z,5.67
2019-04-29T22:26:47.323Z,5.77
2019-04-29T22:29:13.451Z,6.60
2019-04-29T22:31:39.645Z,7.17
2019-04-29T22:34:09.878Z,7.40
2019-04-29T22:36:35.912Z,8.10
2019-04-29T22:39:03.508Z,7.10
2019-04-29T22:41:37.455Z,7.00
2019-04-29T22:44:15.199Z,8.07
2019-04-29T22:46:40.006Z,7.40
2019-04-29T22:49:07.768Z,6.53
2019-04-29T22:51:35.451Z,8.63
2019-04-29T22:54:01.698Z,8.10
2019-04-29T22:56:27.995Z,8.23
2019-04-29T22:58:55.877Z,7.30
2019-04-29T23:01:22.174Z,7.60
2019-04-29T23:03:48.331Z,7.97
2019-04-29T23:06:15.703Z,8.47
2019-04-29T23:08:41.935Z,7.70
2019-04-29T23:11:08.071Z,7.20
2019-04-29T23:13:35.486Z,7.33
2019-04-29T23:16:02.496Z,8.77
2019-04-29T23:18:33.222Z,7.90
2019-04-29T23:20:59.510Z,8.73
2019-04-29T23:23:40.520Z,6.87
2019-04-29T23:26:06.646Z,7.33
2019-04-29T23:28:32.781Z,7.50
2019-04-29T23:30:58.936Z,7.57
2019-04-29T23:33:26.373Z,8.10
2019-04-29T23:35:52.657Z,9.47
2019-04-29T23:38:18.897Z,7.10
2019-04-29T23:43:26.646Z,8.47
2019-04-29T23:45:51.843Z,7.23
2019-04-29T23:48:20.115Z,7.87
2019-04-29T23:50:49.670Z,7.97
2019-04-29T23:53:15.877Z,7.80
2019-04-29T23:55:41.985Z,6.80
2019-04-29T23:58:10.048Z,7.47
